This is the latest recevied weather packets stored in our database for station/object LKCS. If no packets are shown the sender has not sent any weather packets the latest 10 day(s).
| Time | Temp. | Humidity | Pressure | Rain* | Wind** | Luminosity | Snow |
|---|---|---|---|---|---|---|---|
| 1777458785 | 12.22° C | 27% | 1024 hPa | - | - | - | - |
| 1777456959 | 12.78° C | 28% | 1024 hPa | - | - | - | - |
| 1777455186 | 12.22° C | 25% | 1024 hPa | - | - | - | - |
| 1777453394 | 11.11° C | 29% | 1024 hPa | - | - | - | - |
| 1777451585 | 10° C | 34% | 1024 hPa | - | - | - | - |
| 1777449794 | 10° C | 31% | 1024 hPa | - | - | - | - |
| 1777447958 | 8.89° C | 36% | 1024 hPa | - | - | - | - |
| 1777446195 | 7.78° C | 39% | 1024 hPa | - | - | - | - |
| 1777444365 | 7.22° C | 42% | 1024 hPa | - | - | - | - |
| 1777442585 | 6.11° C | 48% | 1024 hPa | - | - | - | - |
| 1777440785 | 5° C | 56% | 1024 hPa | - | - | - | - |
| 1777438999 | 2.22° C | 69% | 1023 hPa | - | - | - | - |
| 1777437151 | 1.11° C | 69% | 1023 hPa | - | - | - | - |
| 1777435364 | 1.11° C | 64% | 1023 hPa | - | - | - | - |
| 1777433585 | 2.78° C | 60% | 1023 hPa | - | - | - | - |
| 1777431786 | 2.78° C | 60% | 1023 hPa | - | - | - | - |
| 1777429985 | 5° C | 52% | 1023 hPa | - | - | - | - |
| 1777428185 | 6.11° C | 45% | 1022 hPa | - | - | - | - |
| 1777426351 | 7.22° C | 45% | 1022 hPa | - | - | - | - |
| 1777424587 | 6.11° C | 52% | 1022 hPa | - | - | - | - |
| 1777422751 | 7.78° C | 42% | 1022 hPa | - | - | - | - |
| 1777420986 | 7.78° C | 45% | 1022 hPa | - | - | - | - |
| 1777419151 | 7.78° C | 49% | 1022 hPa | - | - | - | - |
| 1777417387 | 8.89° C | 49% | 1022 hPa | - | - | - | - |
| 1777415585 | 10° C | 46% | 1022 hPa | - | - | - | - |
* Rain since midnight (hover to see other rain measurements)
** Current wind speed in m/s (hover to see current wind gust speed)